Terminal Aerodrome Forecast
Issued by NWS Atlanta, GA

Home | Current Version | Previous Version | Text Only | Print | Product List | Glossary On
Versions: 1 2 3 4 5 6 7 8 9 10 11 12 13 14 15 16 17 18 19 20 21 22 23
000
FTUS42 KFFC 311740
TAFMCN
TAF
KMCN 311740Z 3118/0118 35005KT P6SM SCT025
      TEMPO 3118/3121 OVC030
     FM312100 02005KT P6SM SCT040
     FM010000 VRB03KT P6SM SCT045 SCT250
     FM011000 03005KT P6SM SCT030 SCT250
     FM011500 07003KT P6SM SCT250=

USA.gov is the U.S. government's official web portal to all federal, state and local government web resources and services.